Time;durP1;ratioP1;P1;durP2;ratioP2;P2;SDS_P1;SDS_P2;PMS_P1;PMS_P2;Temp;Humidity;BMP_temperature;BMP_pressure;BME280_temperature;BME280_humidity;BME280_pressure;Samples;Min_cycle;Max_cycle;Signal;HPM_P1;HPM_P2
2024/01/21 00:02:21;;;;;;;;;;;-0.10;99.90;;;;;;8457883;28;19931;-75
2024/01/21 00:06:23;;;;;;;;;;;-0.10;99.90;;;;;;8451103;28;19924;-76
2024/01/21 00:15:28;;;;;;;;;;;-0.10;99.90;;;;;;8449780;28;20385;-75
2024/01/21 00:19:30;;;;;;;;;;;-0.10;99.90;;;;;;8452743;28;19927;-75
2024/01/21 00:23:32;;;;;;;;;;;-0.10;99.90;;;;;;8459130;28;20025;-75
2024/01/21 00:27:46;;;;;;;;;;;-0.10;99.90;;;;;;8442683;28;19939;-76
2024/01/21 00:31:47;;;;;;;;;;;-0.20;99.90;;;;;;8456431;28;19924;-76
2024/01/21 00:35:49;;;;;;;;;;;-0.20;99.90;;;;;;8433177;28;19924;-75
2024/01/21 00:39:51;;;;;;;;;;;-0.10;99.90;;;;;;8457837;28;19931;-76
2024/01/21 00:43:53;;;;;;;;;;;-0.10;99.90;;;;;;8438001;28;19924;-76
2024/01/21 00:47:54;;;;;;;;;;;-0.10;99.90;;;;;;8439059;28;19927;-76
2024/01/21 00:51:56;;;;;;;;;;;-0.20;99.90;;;;;;8457304;28;19969;-76
2024/01/21 00:55:58;;;;;;;;;;;-0.20;99.90;;;;;;8457418;28;19931;-75
2024/01/21 01:00:06;;;;;;;;;;;-0.20;99.90;;;;;;8454142;28;19923;-75
2024/01/21 01:04:09;;;;;;;;;;;-0.20;99.90;;;;;;8434786;28;19945;-76
2024/01/21 01:08:10;;;;;;;;;;;-0.20;99.90;;;;;;8439667;28;19927;-76
2024/01/21 01:12:12;;;;;;;;;;;-0.20;99.90;;;;;;8458135;28;19932;-75
2024/01/21 01:16:48;;;;;;;;;;;-0.20;99.90;;;;;;8447902;28;20257;-75
2024/01/21 01:20:50;;;;;;;;;;;-0.20;99.90;;;;;;8433965;28;19930;-76
2024/01/21 01:24:51;;;;;;;;;;;-0.20;99.90;;;;;;8455052;28;19934;-75
2024/01/21 01:28:53;;;;;;;;;;;-0.30;99.90;;;;;;8450643;28;20286;-75
2024/01/21 01:32:55;;;;;;;;;;;-0.20;99.90;;;;;;8435600;28;20278;-75
2024/01/21 01:36:56;;;;;;;;;;;-0.20;99.90;;;;;;8446316;28;19931;-75
2024/01/21 01:40:58;;;;;;;;;;;-0.30;99.90;;;;;;8452291;28;19935;-76
2024/01/21 01:45:00;;;;;;;;;;;-0.30;99.90;;;;;;8456365;28;19939;-75
2024/01/21 01:49:02;;;;;;;;;;;-0.30;99.90;;;;;;8452804;28;19967;-75
2024/01/21 01:53:04;;;;;;;;;;;-0.30;99.90;;;;;;8398750;28;19983;-76
2024/01/21 01:57:07;;;;;;;;;;;-0.30;99.90;;;;;;8389534;28;20410;-76
2024/01/21 02:01:08;;;;;;;;;;;-0.30;99.90;;;;;;8386171;28;20395;-76
2024/01/21 02:05:10;;;;;;;;;;;-0.30;99.90;;;;;;8388787;28;19948;-75
2024/01/21 02:09:12;;;;;;;;;;;-0.20;99.90;;;;;;8389137;28;19932;-75
2024/01/21 02:13:15;;;;;;;;;;;-0.20;99.90;;;;;;8389498;28;19925;-75
2024/01/21 02:17:16;;;;;;;;;;;-0.20;99.90;;;;;;8390818;28;19930;-76
2024/01/21 02:21:18;;;;;;;;;;;-0.20;99.90;;;;;;8386074;28;19924;-76
2024/01/21 02:25:20;;;;;;;;;;;-0.20;99.90;;;;;;8386160;28;19928;-76
2024/01/21 02:29:21;;;;;;;;;;;-0.10;99.90;;;;;;8387021;28;20009;-76
2024/01/21 02:33:23;;;;;;;;;;;-0.10;99.90;;;;;;8386232;28;19931;-76
2024/01/21 02:37:25;;;;;;;;;;;0.00;99.90;;;;;;8384517;28;19924;-77
2024/01/21 02:41:27;;;;;;;;;;;0.00;99.90;;;;;;8395818;28;19968;-76
2024/01/21 02:45:28;;;;;;;;;;;0.10;99.90;;;;;;8399378;28;19935;-76
2024/01/21 02:49:30;;;;;;;;;;;0.10;99.90;;;;;;8396212;28;19925;-76
2024/01/21 02:53:32;;;;;;;;;;;0.10;99.90;;;;;;8452398;28;19924;-76
2024/01/21 02:57:33;;;;;;;;;;;0.10;99.90;;;;;;8456087;28;20410;-76
2024/01/21 03:01:35;;;;;;;;;;;0.10;99.90;;;;;;8463731;28;20314;-76
2024/01/21 03:05:37;;;;;;;;;;;0.10;99.90;;;;;;8453337;28;19932;-76
2024/01/21 03:09:39;;;;;;;;;;;0.10;99.90;;;;;;8444533;28;19923;-76
2024/01/21 03:13:40;;;;;;;;;;;0.20;99.90;;;;;;8466221;28;20393;-76
2024/01/21 03:17:42;;;;;;;;;;;0.10;99.90;;;;;;8480191;27;19928;-76
2024/01/21 03:21:44;;;;;;;;;;;0.20;99.90;;;;;;8467762;28;19924;-76
2024/01/21 03:25:45;;;;;;;;;;;0.20;99.90;;;;;;8463010;28;20310;-76
2024/01/21 03:34:51;;;;;;;;;;;0.20;99.90;;;;;;8465856;28;19942;-76
2024/01/21 03:38:53;;;;;;;;;;;0.20;99.90;;;;;;8454012;27;19931;-76
2024/01/21 03:42:55;;;;;;;;;;;0.20;99.90;;;;;;8449369;28;19928;-76
2024/01/21 03:46:57;;;;;;;;;;;0.20;99.90;;;;;;8447877;28;19967;-76
2024/01/21 03:50:58;;;;;;;;;;;0.20;99.90;;;;;;8461996;28;20375;-76
2024/01/21 03:55:01;;;;;;;;;;;0.20;99.90;;;;;;8465940;28;19924;-76
2024/01/21 03:59:03;;;;;;;;;;;0.20;99.90;;;;;;8475455;27;19969;-76
2024/01/21 04:03:05;;;;;;;;;;;0.20;99.90;;;;;;8464294;28;19930;-76
2024/01/21 04:07:06;;;;;;;;;;;0.10;99.90;;;;;;8465074;28;19927;-76
2024/01/21 04:11:08;;;;;;;;;;;0.10;99.90;;;;;;8462225;28;20402;-76
2024/01/21 04:15:10;;;;;;;;;;;0.10;99.90;;;;;;8465216;28;20420;-75
2024/01/21 04:19:12;;;;;;;;;;;0.10;99.90;;;;;;8462275;28;19931;-76
2024/01/21 04:23:14;;;;;;;;;;;0.10;99.90;;;;;;8456076;28;19977;-76
2024/01/21 04:27:15;;;;;;;;;;;0.10;99.90;;;;;;8452601;28;19928;-76
2024/01/21 04:31:17;;;;;;;;;;;0.20;99.90;;;;;;8456451;28;19936;-76
2024/01/21 04:35:19;;;;;;;;;;;0.20;99.90;;;;;;8460697;28;19945;-76
2024/01/21 04:39:22;;;;;;;;;;;0.20;99.90;;;;;;8454688;28;19928;-76
2024/01/21 04:43:24;;;;;;;;;;;0.30;99.90;;;;;;8442302;28;19924;-77
2024/01/21 04:47:26;;;;;;;;;;;0.30;99.90;;;;;;8457369;28;19927;-76
2024/01/21 04:51:28;;;;;;;;;;;0.40;99.90;;;;;;8461114;28;19927;-76
2024/01/21 04:55:29;;;;;;;;;;;0.40;99.90;;;;;;8457100;28;19938;-76
2024/01/21 04:59:31;;;;;;;;;;;0.40;99.90;;;;;;8457547;28;19931;-76
2024/01/21 05:03:33;;;;;;;;;;;0.50;99.90;;;;;;8439296;28;19928;-76
2024/01/21 05:07:34;;;;;;;;;;;0.50;99.90;;;;;;8441057;28;19938;-76
2024/01/21 05:11:37;;;;;;;;;;;0.50;99.90;;;;;;8440000;28;19928;-76
2024/01/21 05:15:38;;;;;;;;;;;0.60;99.90;;;;;;8443126;28;19938;-76
2024/01/21 05:19:40;;;;;;;;;;;0.60;99.90;;;;;;8444991;28;19928;-76
2024/01/21 05:23:42;;;;;;;;;;;0.70;99.90;;;;;;8437515;28;19928;-76
2024/01/21 05:27:43;;;;;;;;;;;0.70;99.90;;;;;;8451672;28;19924;-76
2024/01/21 05:31:45;;;;;;;;;;;0.80;99.90;;;;;;8428605;28;20227;-75
2024/01/21 05:35:47;;;;;;;;;;;0.90;99.90;;;;;;8444432;28;19931;-75
2024/01/21 05:39:48;;;;;;;;;;;0.90;99.90;;;;;;8443047;28;20279;-75
2024/01/21 05:43:50;;;;;;;;;;;1.00;99.90;;;;;;8448824;27;19924;-76
2024/01/21 05:47:52;;;;;;;;;;;1.00;99.90;;;;;;8454054;28;19954;-75
2024/01/21 05:51:54;;;;;;;;;;;1.10;99.90;;;;;;8447470;27;19976;-75
2024/01/21 05:55:56;;;;;;;;;;;1.10;99.90;;;;;;8460834;27;19928;-76
2024/01/21 05:59:58;;;;;;;;;;;1.10;99.90;;;;;;8456384;28;19931;-75
2024/01/21 06:04:00;;;;;;;;;;;1.10;99.90;;;;;;8449380;28;20299;-75
2024/01/21 06:08:02;;;;;;;;;;;1.20;99.90;;;;;;8452070;28;19931;-75
2024/01/21 06:12:03;;;;;;;;;;;1.20;99.90;;;;;;8453494;28;19969;-75
2024/01/21 06:16:05;;;;;;;;;;;1.20;99.90;;;;;;8441092;28;19977;-75
2024/01/21 06:20:08;;;;;;;;;;;1.30;99.90;;;;;;8468179;27;19931;-75
2024/01/21 06:24:11;;;;;;;;;;;1.30;99.90;;;;;;8442907;27;20069;-75
2024/01/21 06:28:13;;;;;;;;;;;1.40;99.90;;;;;;8454507;28;19934;-75
2024/01/21 06:32:15;;;;;;;;;;;1.40;99.90;;;;;;8448433;28;20379;-75
2024/01/21 06:36:17;;;;;;;;;;;1.40;99.90;;;;;;8458328;27;19966;-75
2024/01/21 06:40:18;;;;;;;;;;;1.50;99.90;;;;;;8464803;28;19927;-75
2024/01/21 06:44:20;;;;;;;;;;;1.50;99.90;;;;;;8443396;28;19924;-75
2024/01/21 06:48:22;;;;;;;;;;;1.50;99.90;;;;;;8455922;28;19931;-75
2024/01/21 06:52:23;;;;;;;;;;;1.60;99.90;;;;;;8463955;28;19931;-75
2024/01/21 06:56:25;;;;;;;;;;;1.60;99.90;;;;;;8460939;27;19923;-75
2024/01/21 07:00:27;;;;;;;;;;;1.60;99.90;;;;;;8444470;28;19977;-75
2024/01/21 07:04:29;;;;;;;;;;;1.70;99.90;;;;;;8475999;27;19924;-75
2024/01/21 07:08:31;;;;;;;;;;;1.70;99.90;;;;;;8458598;27;19959;-75
2024/01/21 07:12:33;;;;;;;;;;;1.70;99.90;;;;;;8464913;28;19924;-75
2024/01/21 07:16:35;;;;;;;;;;;1.60;99.90;;;;;;8460503;28;19931;-75
2024/01/21 07:20:36;;;;;;;;;;;1.60;99.90;;;;;;8463474;28;19939;-75
2024/01/21 07:24:38;;;;;;;;;;;1.60;99.90;;;;;;8460546;28;19928;-74
2024/01/21 07:28:40;;;;;;;;;;;1.60;99.90;;;;;;8441181;27;20423;-75
2024/01/21 07:37:46;;;;;;;;;;;1.60;99.90;;;;;;8456068;28;19975;-75
2024/01/21 07:41:48;;;;;;;;;;;1.50;99.90;;;;;;8445217;28;19924;-75
2024/01/21 07:45:50;;;;;;;;;;;1.50;99.90;;;;;;8463310;28;20011;-75
2024/01/21 07:49:52;;;;;;;;;;;1.60;99.90;;;;;;8458887;28;19924;-75
2024/01/21 07:53:53;;;;;;;;;;;1.60;99.90;;;;;;8461396;28;19924;-75
2024/01/21 07:57:55;;;;;;;;;;;1.70;99.90;;;;;;8458648;27;19924;-75
2024/01/21 08:01:57;;;;;;;;;;;1.70;99.90;;;;;;8462816;28;19927;-75
2024/01/21 08:05:59;;;;;;;;;;;1.80;99.90;;;;;;8471154;27;20369;-75
2024/01/21 08:10:00;;;;;;;;;;;1.80;99.90;;;;;;8431474;28;19949;-75
2024/01/21 08:14:02;;;;;;;;;;;1.80;99.90;;;;;;8441613;28;19928;-74
2024/01/21 08:18:05;;;;;;;;;;;1.90;99.90;;;;;;8450934;28;19974;-75
2024/01/21 08:22:08;;;;;;;;;;;1.90;99.90;;;;;;8458513;28;19928;-75
2024/01/21 08:26:10;;;;;;;;;;;2.00;99.90;;;;;;8449306;28;19931;-75
2024/01/21 08:30:12;;;;;;;;;;;2.10;99.90;;;;;;8454721;28;19939;-74
2024/01/21 08:34:14;;;;;;;;;;;2.10;99.90;;;;;;8448735;28;20019;-75
2024/01/21 08:38:15;;;;;;;;;;;2.10;99.90;;;;;;8445318;27;19975;-74
2024/01/21 08:42:19;;;;;;;;;;;2.10;99.90;;;;;;8439198;28;19934;-75
2024/01/21 08:46:21;;;;;;;;;;;2.20;99.90;;;;;;8457310;28;19924;-75
2024/01/21 08:50:22;;;;;;;;;;;2.20;99.90;;;;;;8431886;28;20383;-75
2024/01/21 08:54:24;;;;;;;;;;;2.30;99.90;;;;;;8422103;28;19985;-75
2024/01/21 08:58:26;;;;;;;;;;;2.30;99.90;;;;;;8421375;28;19932;-75
2024/01/21 09:02:28;;;;;;;;;;;2.30;99.90;;;;;;8420198;28;19977;-76
2024/01/21 09:06:30;;;;;;;;;;;2.40;99.90;;;;;;8414510;28;19924;-75
2024/01/21 09:10:35;;;;;;;;;;;2.40;99.90;;;;;;8422114;28;20379;-75
2024/01/21 09:14:36;;;;;;;;;;;2.40;99.90;;;;;;8417167;28;19924;-75
2024/01/21 09:18:38;;;;;;;;;;;2.50;99.90;;;;;;8420174;28;19928;-75
2024/01/21 09:22:40;;;;;;;;;;;2.50;99.90;;;;;;8417427;28;19961;-75
2024/01/21 09:26:42;;;;;;;;;;;2.50;99.90;;;;;;8409283;28;19935;-75
2024/01/21 09:30:44;;;;;;;;;;;2.50;99.90;;;;;;8411583;28;19935;-75
2024/01/21 09:34:46;;;;;;;;;;;2.60;99.90;;;;;;8416247;28;19924;-75
2024/01/21 09:38:47;;;;;;;;;;;2.70;99.90;;;;;;8419683;28;20356;-75
2024/01/21 09:42:50;;;;;;;;;;;2.70;99.90;;;;;;8417907;28;19924;-75
2024/01/21 09:46:56;;;;;;;;;;;2.80;99.90;;;;;;8407666;28;19949;-75
2024/01/21 09:50:58;;;;;;;;;;;2.80;99.90;;;;;;8418880;28;19980;-75
2024/01/21 09:55:00;;;;;;;;;;;2.80;99.90;;;;;;8447104;28;19994;-75
2024/01/21 09:59:03;;;;;;;;;;;2.80;99.90;;;;;;8436464;28;19924;-74
2024/01/21 10:03:05;;;;;;;;;;;2.90;99.90;;;;;;8451067;28;19931;-75
2024/01/21 10:07:07;;;;;;;;;;;2.90;99.90;;;;;;8444786;28;20279;-75
2024/01/21 10:11:09;;;;;;;;;;;2.90;99.90;;;;;;8441644;28;19963;-75
2024/01/21 10:15:14;;;;;;;;;;;3.00;99.90;;;;;;8452165;28;19924;-75
2024/01/21 10:19:26;;;;;;;;;;;3.00;99.90;;;;;;8453985;28;19927;-75
2024/01/21 10:23:28;;;;;;;;;;;3.00;99.90;;;;;;8444634;28;19932;-75
2024/01/21 10:27:30;;;;;;;;;;;3.10;99.90;;;;;;8444071;28;19990;-75
2024/01/21 10:31:32;;;;;;;;;;;3.10;99.90;;;;;;8427644;28;20467;-74
2024/01/21 10:35:33;;;;;;;;;;;3.10;99.90;;;;;;8453023;28;19924;-75
2024/01/21 10:40:01;;;;;;;;;;;3.20;99.90;;;;;;8458039;28;19924;-75
2024/01/21 10:44:03;;;;;;;;;;;3.20;99.90;;;;;;8456886;28;19928;-74
2024/01/21 10:48:07;;;;;;;;;;;3.20;99.90;;;;;;8432165;28;19945;-75
2024/01/21 10:52:11;;;;;;;;;;;3.30;99.90;;;;;;8458943;28;19923;-75
2024/01/21 10:56:13;;;;;;;;;;;3.30;99.90;;;;;;8440017;28;19931;-75
2024/01/21 11:00:16;;;;;;;;;;;3.40;99.90;;;;;;8456951;28;20397;-75
2024/01/21 11:04:21;;;;;;;;;;;3.40;99.90;;;;;;8464778;28;19934;-75
2024/01/21 11:08:23;;;;;;;;;;;3.50;99.90;;;;;;8462089;28;19938;-75
2024/01/21 11:12:27;;;;;;;;;;;3.50;99.90;;;;;;8457924;28;19924;-75
2024/01/21 11:16:29;;;;;;;;;;;3.50;99.90;;;;;;8477208;27;19950;-75
2024/01/21 11:20:38;;;;;;;;;;;3.60;99.90;;;;;;8461477;28;19930;-75
2024/01/21 11:24:43;;;;;;;;;;;3.60;99.90;;;;;;8459770;28;19924;-75
2024/01/21 11:28:45;;;;;;;;;;;3.60;99.90;;;;;;8449703;27;20271;-75
2024/01/21 11:32:46;;;;;;;;;;;3.70;99.90;;;;;;8464131;28;19924;-75
2024/01/21 11:36:48;;;;;;;;;;;3.70;99.90;;;;;;8463571;28;19939;-74
2024/01/21 11:41:01;;;;;;;;;;;3.70;99.90;;;;;;8462963;28;19930;-75
2024/01/21 11:45:03;;;;;;;;;;;3.80;99.90;;;;;;8460119;28;19924;-75
2024/01/21 11:49:05;;;;;;;;;;;3.80;99.90;;;;;;8455894;28;20366;-75
2024/01/21 11:53:07;;;;;;;;;;;3.80;99.90;;;;;;8460157;28;19942;-74
2024/01/21 11:57:09;;;;;;;;;;;3.90;99.90;;;;;;8462576;28;19923;-75
2024/01/21 12:01:11;;;;;;;;;;;3.90;99.90;;;;;;8456311;28;19927;-75
2024/01/21 12:05:16;;;;;;;;;;;3.90;99.90;;;;;;8461554;28;19924;-75
2024/01/21 12:09:18;;;;;;;;;;;3.90;99.90;;;;;;8437249;28;20410;-75
2024/01/21 12:13:21;;;;;;;;;;;4.00;99.90;;;;;;8459618;28;19923;-75
2024/01/21 12:17:23;;;;;;;;;;;4.00;99.90;;;;;;8459329;28;19932;-75
2024/01/21 12:21:27;;;;;;;;;;;4.10;99.90;;;;;;8441769;28;19971;-75
2024/01/21 12:25:28;;;;;;;;;;;4.10;99.90;;;;;;8460353;28;19927;-74
2024/01/21 12:29:37;;;;;;;;;;;4.10;99.90;;;;;;8419305;28;19967;-75
2024/01/21 12:33:39;;;;;;;;;;;4.10;99.90;;;;;;8426437;28;19975;-75
2024/01/21 12:37:41;;;;;;;;;;;4.20;99.90;;;;;;8439533;28;19945;-74
2024/01/21 12:41:43;;;;;;;;;;;4.20;99.90;;;;;;8436512;27;20379;-75
2024/01/21 12:45:45;;;;;;;;;;;4.30;99.90;;;;;;8434855;28;20345;-75
2024/01/21 12:49:49;;;;;;;;;;;4.40;99.90;;;;;;8413058;28;20213;-75
2024/01/21 12:53:52;;;;;;;;;;;4.30;99.90;;;;;;8434993;28;19924;-75
2024/01/21 12:57:54;;;;;;;;;;;4.40;99.90;;;;;;8441191;28;20001;-73
2024/01/21 13:01:55;;;;;;;;;;;4.40;99.90;;;;;;8421534;28;19932;-75
2024/01/21 13:06:00;;;;;;;;;;;4.40;99.90;;;;;;8430966;27;19924;-75
2024/01/21 13:10:03;;;;;;;;;;;4.50;99.90;;;;;;8428281;28;19969;-75
2024/01/21 13:14:05;;;;;;;;;;;4.50;99.90;;;;;;8410652;28;19928;-75
2024/01/21 13:18:09;;;;;;;;;;;4.50;99.90;;;;;;8407351;28;20026;-75
2024/01/21 13:22:11;;;;;;;;;;;4.60;99.90;;;;;;8402640;28;20391;-75
2024/01/21 13:26:14;;;;;;;;;;;4.50;99.90;;;;;;8425010;28;19956;-75
2024/01/21 13:34:54;;;;;;;;;;;4.60;99.90;;;;;;8316805;28;19977;-75
2024/01/21 13:38:56;;;;;;;;;;;4.60;99.90;;;;;;8430285;28;20209;-75
2024/01/21 13:42:57;;;;;;;;;;;4.60;99.90;;;;;;8409817;28;19928;-75
2024/01/21 13:46:59;;;;;;;;;;;4.60;99.90;;;;;;8431418;28;19940;-75
2024/01/21 13:51:02;;;;;;;;;;;4.60;99.90;;;;;;8409995;28;20422;-75
2024/01/21 13:55:07;;;;;;;;;;;4.60;99.90;;;;;;8430478;28;20540;-75
2024/01/21 13:59:09;;;;;;;;;;;4.60;99.90;;;;;;8427678;28;19970;-74
2024/01/21 14:03:11;;;;;;;;;;;4.60;99.90;;;;;;8437032;28;19924;-75
2024/01/21 14:07:13;;;;;;;;;;;4.70;99.90;;;;;;8425465;28;19923;-75
2024/01/21 14:11:15;;;;;;;;;;;4.70;99.90;;;;;;8412916;28;19935;-75
2024/01/21 14:15:17;;;;;;;;;;;4.70;99.90;;;;;;8425366;28;19924;-75
2024/01/21 14:19:19;;;;;;;;;;;4.80;99.90;;;;;;8427470;28;20062;-75
2024/01/21 14:23:20;;;;;;;;;;;4.80;99.90;;;;;;8426366;28;20303;-75
2024/01/21 14:27:23;;;;;;;;;;;4.80;99.90;;;;;;8410615;28;19924;-75
2024/01/21 14:31:26;;;;;;;;;;;4.80;99.90;;;;;;8427679;28;20030;-75
2024/01/21 14:35:28;;;;;;;;;;;4.80;99.90;;;;;;8428037;28;19931;-75
2024/01/21 14:39:30;;;;;;;;;;;4.90;99.90;;;;;;8421021;28;19946;-75
2024/01/21 14:43:32;;;;;;;;;;;4.90;99.90;;;;;;8417122;28;19949;-75
2024/01/21 14:47:35;;;;;;;;;;;4.90;99.90;;;;;;8436531;28;20290;-75
2024/01/21 14:51:37;;;;;;;;;;;4.90;99.90;;;;;;8427720;28;19977;-75
2024/01/21 14:55:38;;;;;;;;;;;4.90;99.90;;;;;;8443358;28;19931;-75
2024/01/21 14:59:40;;;;;;;;;;;4.90;99.90;;;;;;8445365;28;20274;-75
2024/01/21 15:03:42;;;;;;;;;;;4.90;99.90;;;;;;8439843;28;20337;-75
2024/01/21 15:07:45;;;;;;;;;;;5.00;99.90;;;;;;8444322;28;19994;-75
2024/01/21 15:11:49;;;;;;;;;;;5.00;99.90;;;;;;8428014;28;20403;-75
2024/01/21 15:15:51;;;;;;;;;;;5.00;99.90;;;;;;8430373;28;19931;-75
2024/01/21 15:19:53;;;;;;;;;;;5.00;99.90;;;;;;8444328;27;20775;-75
2024/01/21 15:23:55;;;;;;;;;;;5.00;99.90;;;;;;8444985;28;19953;-75
2024/01/21 15:27:57;;;;;;;;;;;5.00;99.90;;;;;;8441783;28;20287;-74
2024/01/21 15:31:59;;;;;;;;;;;5.10;99.90;;;;;;8444237;28;19931;-75
2024/01/21 15:36:01;;;;;;;;;;;5.10;99.90;;;;;;8433996;28;19935;-75
2024/01/21 15:40:03;;;;;;;;;;;5.10;99.90;;;;;;8435783;27;19931;-75
2024/01/21 15:44:05;;;;;;;;;;;5.10;99.90;;;;;;8434368;28;19928;-75
2024/01/21 15:48:07;;;;;;;;;;;5.10;99.90;;;;;;8418679;28;19928;-75
2024/01/21 15:52:09;;;;;;;;;;;5.10;99.90;;;;;;8412627;28;19985;-75
2024/01/21 15:56:10;;;;;;;;;;;5.10;99.90;;;;;;8421682;28;19935;-75
2024/01/21 16:05:16;;;;;;;;;;;5.10;99.90;;;;;;8443100;28;20294;-75
2024/01/21 16:09:18;;;;;;;;;;;5.00;99.90;;;;;;8431446;28;20438;-75
2024/01/21 16:13:20;;;;;;;;;;;5.00;99.90;;;;;;8439415;28;19931;-75
2024/01/21 16:17:28;;;;;;;;;;;5.10;99.90;;;;;;8415247;27;20362;-75
2024/01/21 16:21:32;;;;;;;;;;;5.00;99.90;;;;;;8435992;28;19924;-75
2024/01/21 16:25:34;;;;;;;;;;;5.10;99.90;;;;;;8415505;28;19943;-75
2024/01/21 16:29:36;;;;;;;;;;;5.10;99.90;;;;;;8435028;28;19923;-75
2024/01/21 16:33:38;;;;;;;;;;;5.10;99.90;;;;;;8433389;28;19936;-75
2024/01/21 16:37:40;;;;;;;;;;;5.20;99.90;;;;;;8421172;28;20019;-75
2024/01/21 16:41:41;;;;;;;;;;;5.20;99.90;;;;;;8426999;27;19936;-75
2024/01/21 16:45:43;;;;;;;;;;;5.20;99.90;;;;;;8421344;28;20363;-75
2024/01/21 16:49:45;;;;;;;;;;;5.20;99.90;;;;;;8433162;28;19928;-75
2024/01/21 16:53:47;;;;;;;;;;;5.20;99.90;;;;;;8428598;28;19961;-75
2024/01/21 16:57:49;;;;;;;;;;;5.20;99.90;;;;;;8430998;28;19932;-75
2024/01/21 17:01:53;;;;;;;;;;;5.20;99.90;;;;;;8411389;28;19977;-75
2024/01/21 17:05:58;;;;;;;;;;;5.20;99.90;;;;;;8424401;28;19924;-75
2024/01/21 17:10:02;;;;;;;;;;;5.20;99.90;;;;;;8427279;28;19931;-75
2024/01/21 17:14:04;;;;;;;;;;;5.20;99.90;;;;;;8431233;28;19924;-74
2024/01/21 17:18:11;;;;;;;;;;;5.10;99.90;;;;;;8426474;28;19959;-75
2024/01/21 17:22:13;;;;;;;;;;;5.10;99.90;;;;;;8427501;28;19923;-75
2024/01/21 17:26:15;;;;;;;;;;;5.10;99.90;;;;;;8420279;28;20454;-75
2024/01/21 17:30:17;;;;;;;;;;;5.10;99.90;;;;;;8419152;28;19951;-75
2024/01/21 17:34:19;;;;;;;;;;;5.10;99.90;;;;;;8433119;28;19931;-75
2024/01/21 17:38:21;;;;;;;;;;;5.10;99.90;;;;;;8426724;28;19928;-75
2024/01/21 17:42:23;;;;;;;;;;;5.10;99.90;;;;;;8428461;28;20087;-75
2024/01/21 17:46:25;;;;;;;;;;;5.10;99.90;;;;;;8421079;28;19931;-75
2024/01/21 17:50:29;;;;;;;;;;;5.10;99.90;;;;;;8430825;28;20480;-75
2024/01/21 17:54:31;;;;;;;;;;;5.10;99.90;;;;;;8408376;28;19932;-75
2024/01/21 17:58:33;;;;;;;;;;;5.10;99.90;;;;;;8431449;28;19924;-75
2024/01/21 18:02:35;;;;;;;;;;;5.10;99.90;;;;;;8429400;28;19928;-75
2024/01/21 18:06:36;;;;;;;;;;;5.10;99.90;;;;;;8432590;28;19932;-75
2024/01/21 18:10:38;;;;;;;;;;;5.10;99.90;;;;;;8410868;28;19931;-75
2024/01/21 18:14:40;;;;;;;;;;;5.10;99.90;;;;;;8425947;28;19923;-75
2024/01/21 18:18:42;;;;;;;;;;;5.10;99.90;;;;;;8427083;28;19924;-75
2024/01/21 18:22:44;;;;;;;;;;;5.00;99.90;;;;;;8429937;28;19978;-75
2024/01/21 18:26:46;;;;;;;;;;;5.10;99.90;;;;;;8430110;28;19924;-75
2024/01/21 18:30:48;;;;;;;;;;;5.10;99.90;;;;;;8434474;28;20264;-75
2024/01/21 18:34:51;;;;;;;;;;;5.10;99.90;;;;;;8430070;28;20425;-75
2024/01/21 18:38:53;;;;;;;;;;;5.10;99.90;;;;;;8437125;28;19928;-75
2024/01/21 18:42:54;;;;;;;;;;;5.10;99.90;;;;;;8434830;28;19970;-75
2024/01/21 18:46:56;;;;;;;;;;;5.20;99.90;;;;;;8428762;28;19932;-75
2024/01/21 18:50:58;;;;;;;;;;;5.20;99.90;;;;;;8440450;28;19925;-74
2024/01/21 18:55:00;;;;;;;;;;;5.20;99.90;;;;;;8431912;28;19950;-75
2024/01/21 18:59:02;;;;;;;;;;;5.20;99.90;;;;;;8429868;28;20397;-75
2024/01/21 19:03:03;;;;;;;;;;;5.20;99.90;;;;;;8410113;28;20448;-75
2024/01/21 19:07:15;;;;;;;;;;;5.20;99.90;;;;;;8406574;28;20015;-75
2024/01/21 19:11:17;;;;;;;;;;;5.20;99.90;;;;;;8432605;28;19969;-75
2024/01/21 19:15:18;;;;;;;;;;;5.30;99.90;;;;;;8429761;28;19928;-75
2024/01/21 19:19:20;;;;;;;;;;;5.20;99.90;;;;;;8418016;28;19924;-75
2024/01/21 19:23:22;;;;;;;;;;;5.20;99.90;;;;;;8444858;28;19950;-75
2024/01/21 19:27:25;;;;;;;;;;;5.30;99.90;;;;;;8426708;28;19968;-75
2024/01/21 19:31:27;;;;;;;;;;;5.30;99.90;;;;;;8431691;28;19924;-75
2024/01/21 19:35:29;;;;;;;;;;;5.30;99.90;;;;;;8436417;28;20025;-75
2024/01/21 19:39:31;;;;;;;;;;;5.40;99.90;;;;;;8433250;28;20268;-75
2024/01/21 19:43:33;;;;;;;;;;;5.40;99.90;;;;;;8422934;28;19936;-75
2024/01/21 19:52:32;;;;;;;;;;;5.50;99.90;;;;;;8432281;28;20386;-75
2024/01/21 19:56:34;;;;;;;;;;;5.50;99.90;;;;;;8429769;28;19928;-75
2024/01/21 20:00:36;;;;;;;;;;;5.60;99.90;;;;;;8434313;28;20598;-75
2024/01/21 20:04:37;;;;;;;;;;;5.60;99.90;;;;;;8420149;28;20540;-75
2024/01/21 20:08:39;;;;;;;;;;;5.70;99.90;;;;;;8422764;28;20295;-75
2024/01/21 20:12:41;;;;;;;;;;;5.80;99.90;;;;;;8435746;28;20408;-75
2024/01/21 20:16:43;;;;;;;;;;;5.80;99.90;;;;;;8416686;28;19989;-75
2024/01/21 20:20:46;;;;;;;;;;;5.90;99.90;;;;;;8430809;28;19983;-75
2024/01/21 20:24:48;;;;;;;;;;;6.00;99.90;;;;;;8427702;28;20350;-76
2024/01/21 20:28:52;;;;;;;;;;;6.00;99.90;;;;;;8431054;27;19932;-75
2024/01/21 20:32:53;;;;;;;;;;;6.10;99.90;;;;;;8433492;27;20394;-75
2024/01/21 20:36:55;;;;;;;;;;;6.10;99.90;;;;;;8432218;28;19924;-75
2024/01/21 20:40:58;;;;;;;;;;;6.20;99.90;;;;;;8432998;28;19923;-75
2024/01/21 20:45:01;;;;;;;;;;;6.20;99.90;;;;;;8429675;27;19977;-76
2024/01/21 20:49:03;;;;;;;;;;;6.20;99.90;;;;;;8433485;28;20280;-74
2024/01/21 20:53:05;;;;;;;;;;;6.30;99.90;;;;;;8431715;28;19924;-75
2024/01/21 20:57:10;;;;;;;;;;;6.30;99.90;;;;;;8421345;28;20338;-75
2024/01/21 21:01:12;;;;;;;;;;;6.40;99.90;;;;;;8429436;28;19932;-75
2024/01/21 21:05:15;;;;;;;;;;;6.50;99.90;;;;;;8427184;27;20015;-75
2024/01/21 21:09:16;;;;;;;;;;;6.50;99.90;;;;;;8432667;27;19938;-75
2024/01/21 21:13:21;;;;;;;;;;;6.60;99.90;;;;;;8438090;28;20120;-75
2024/01/21 21:17:23;;;;;;;;;;;6.60;99.90;;;;;;8423558;28;20163;-74
2024/01/21 21:21:26;;;;;;;;;;;6.70;99.90;;;;;;8416389;28;20310;-75
2024/01/21 21:25:28;;;;;;;;;;;6.80;99.90;;;;;;8430996;28;19924;-75
2024/01/21 21:29:30;;;;;;;;;;;6.80;99.90;;;;;;8433368;28;19951;-75
2024/01/21 21:33:32;;;;;;;;;;;6.80;99.90;;;;;;8432723;28;19968;-75
2024/01/21 21:37:34;;;;;;;;;;;6.90;99.90;;;;;;8414648;27;19950;-75
2024/01/21 21:41:36;;;;;;;;;;;6.90;99.90;;;;;;8421845;28;19936;-75
2024/01/21 21:45:38;;;;;;;;;;;6.90;99.90;;;;;;8425924;28;19936;-75
2024/01/21 21:49:40;;;;;;;;;;;6.90;99.90;;;;;;8410771;28;20293;-75
2024/01/21 21:53:42;;;;;;;;;;;6.80;99.90;;;;;;8415822;28;20260;-76
2024/01/21 21:57:44;;;;;;;;;;;6.70;99.90;;;;;;8415938;28;20334;-75
2024/01/21 22:01:45;;;;;;;;;;;6.70;99.90;;;;;;8433222;28;20038;-76
2024/01/21 22:05:47;;;;;;;;;;;6.70;99.90;;;;;;8457100;28;19985;-75
2024/01/21 22:09:49;;;;;;;;;;;6.80;99.90;;;;;;8436462;28;19932;-75
2024/01/21 22:13:50;;;;;;;;;;;6.80;99.90;;;;;;8440643;28;19924;-75
2024/01/21 22:17:52;;;;;;;;;;;6.80;99.90;;;;;;8459392;28;20005;-75
2024/01/21 22:21:54;;;;;;;;;;;6.80;99.90;;;;;;8441555;28;19924;-76
2024/01/21 22:25:55;;;;;;;;;;;6.90;99.90;;;;;;8451164;28;19978;-75
2024/01/21 22:29:57;;;;;;;;;;;7.00;99.90;;;;;;8451640;28;19935;-75
2024/01/21 22:33:59;;;;;;;;;;;7.00;99.90;;;;;;8453227;28;19970;-75
2024/01/21 22:38:02;;;;;;;;;;;7.10;99.90;;;;;;8440171;28;19927;-75
2024/01/21 22:42:04;;;;;;;;;;;7.10;99.90;;;;;;8460590;28;19970;-76
2024/01/21 22:46:06;;;;;;;;;;;7.20;99.90;;;;;;8459589;28;19979;-75
2024/01/21 22:50:08;;;;;;;;;;;7.30;99.90;;;;;;8439616;28;20379;-75
2024/01/21 22:54:11;;;;;;;;;;;7.30;99.90;;;;;;8453585;28;19984;-75
2024/01/21 23:02:55;;;;;;;;;;;7.50;99.90;;;;;;8451166;28;19928;-75
2024/01/21 23:06:57;;;;;;;;;;;7.60;99.90;;;;;;8465407;28;19923;-75
2024/01/21 23:11:01;;;;;;;;;;;7.60;99.90;;;;;;8454914;28;19924;-75
2024/01/21 23:15:03;;;;;;;;;;;7.70;99.90;;;;;;8463465;28;19927;-75
2024/01/21 23:19:05;;;;;;;;;;;7.70;99.90;;;;;;8464394;27;19928;-76
2024/01/21 23:23:06;;;;;;;;;;;7.80;99.90;;;;;;8445629;28;19934;-75
2024/01/21 23:27:09;;;;;;;;;;;7.90;99.90;;;;;;8459228;28;19923;-75
2024/01/21 23:31:10;;;;;;;;;;;8.00;99.90;;;;;;8458553;28;19924;-75
2024/01/21 23:35:12;;;;;;;;;;;8.00;99.90;;;;;;8439969;28;19934;-76
2024/01/21 23:39:14;;;;;;;;;;;8.10;99.90;;;;;;8459176;28;20252;-75
2024/01/21 23:43:16;;;;;;;;;;;8.20;99.90;;;;;;8458705;28;20409;-75
2024/01/21 23:47:18;;;;;;;;;;;8.20;99.90;;;;;;8445632;28;20009;-76
2024/01/21 23:51:19;;;;;;;;;;;8.30;99.90;;;;;;8458326;28;19939;-75
2024/01/21 23:55:21;;;;;;;;;;;8.40;99.90;;;;;;8463776;28;19977;-75
2024/01/21 23:59:23;;;;;;;;;;;8.40;99.90;;;;;;8462545;28;19935;-75
